KETN/ETN METAR and TAF weather

Enter ICAO airport designator
Station Type Date Time Source
KETN METAR 2021/05/15 01:55 UTC NOAA

KETN 150155Z AUTO 14015KT 10SM CLR 21/15 A3005 RMK AO2 T02090148


Station Type Date Time Source
KETN Decoded METAR 2021/05/15 01:55 UTC NOAA

Station name not available
May 14, 2021 - 09:55 PM EDT / 2021.05.15 0155 UTC
Wind: from the SE (140 degrees) at 17 MPH (15 KT):0
Visibility: 10 mile(s):0
Sky conditions: clear
Temperature: 69.6 F (20.9 C)
Dew Point: 58.6 F (14.8 C)
Relative Humidity: 68%
Pressure (altimeter): 30.05 in. Hg (1017 hPa)
ob: KETN 150155Z AUTO 14015KT 10SM CLR 21/15 A3005 RMK AO2 T02090148
cycle: 2

Station Type Date Time Source
KETN TAF UTC NOAA

Error!

Example: see airport list